Sunday, October 22, 2017, 5:08 PM EDT
Back to Local

KBOS, Boston Logan International

Location: Boston, MA, United States Lat: 42.367
Local Time: 5:08 PM EDT (21:08 GMT) Lon: -71.017
Time Zone: US/Eastern Elev: 19 ft

Show me the last for .
Show Decoded

2017-10-22 16:54 METAR KBOS 222054Z 08007KT 10SM FEW060 FEW110 BKN250 16/13 A3040 RMK AO2 SLP292
                 T01560128 53001 =
2017-10-22 15:54 METAR KBOS 221954Z 06009KT 10SM FEW060 BKN250 17/13 A3039 RMK AO2 SLP291
                 T01670133 =
2017-10-22 14:54 METAR KBOS 221854Z 07010KT 10SM SCT250 18/13 A3039 RMK AO2 SLP291 T01780133 =
2017-10-22 13:54 METAR KBOS 221754Z 08010KT 10SM FEW180 SCT250 18/14 A3039 RMK AO2 SLP291
                 T01780139 10189 20150 58005 =
2017-10-22 12:54 METAR KBOS 221654Z 09008KT 10SM FEW180 SCT250 18/13 A3040 RMK AO2 SLP294
                 T01780128 =
2017-10-22 11:54 METAR KBOS 221554Z 08006KT 10SM FEW180 SCT250 18/11 A3041 RMK AO2 SLP296
                 T01830111 =
2017-10-22 10:54 METAR KBOS 221454Z 07004KT 10SM FEW180 SCT250 18/09 A3041 RMK AO2 SLP296
                 T01830094 50008 =
2017-10-22 09:54 METAR KBOS 221354Z 03005KT 10SM FEW180 SCT250 19/09 A3041 RMK AO2 SLP298
                 T01890089 =
2017-10-22 08:54 METAR KBOS 221254Z 00000KT 10SM FEW060 FEW180 BKN250 17/08 A3041 RMK AO2 SLP295
                 T01720083 =
2017-10-22 07:54 METAR KBOS 221154Z COR 28004KT 10SM SCT250 15/08 A3039 RMK AO2 SLP289 T01500078
                 10156 20122 53014 =
2017-10-22 06:54 METAR KBOS 221054Z 00000KT 10SM BKN220 13/09 A3037 RMK AO2 SLP283 T01280089 =
2017-10-22 05:54 METAR KBOS 220954Z 00000KT 10SM BKN220 13/09 A3036 RMK AO2 SLP279 T01330094 =
2017-10-22 04:54 METAR KBOS 220854Z 00000KT 10SM BKN220 OVC250 13/09 A3034 RMK AO2 SLP275
                 T01330089 53006 =
2017-10-22 03:54 METAR KBOS 220754Z 00000KT 10SM OVC250 13/09 A3034 RMK AO2 SLP272 T01280094 =
2017-10-22 02:54 METAR KBOS 220654Z 00000KT 10SM FEW250 14/08 A3033 RMK AO2 SLP270 T01390083 =
2017-10-22 01:54 METAR KBOS 220554Z 22004KT 10SM BKN250 15/09 A3033 RMK AO2 SLP268 T01500094
                 10178 20144 51001 =
2017-10-22 00:54 METAR KBOS 220454Z 21004KT 10SM BKN220 BKN250 14/09 A3032 RMK AO2 SLP268
                 T01440089 402560106 =
2017-10-21 23:54 METAR KBOS 220354Z 19004KT 10SM FEW220 BKN250 16/09 A3032 RMK AO2 SLP268
                 T01560094 =
2017-10-21 22:54 METAR KBOS 220254Z 22005KT 10SM SCT220 OVC250 17/09 A3032 RMK AO2 SLP267
                 T01670089 53008 =
2017-10-21 21:54 METAR KBOS 220154Z 21008KT 10SM CLR 17/09 A3031 RMK AO2 SLP264 T01720089 =
2017-10-21 20:54 METAR KBOS 220054Z 20005KT 10SM SCT220 18/08 A3030 RMK AO2 SLP261 T01780083 =
2017-10-21 19:54 METAR KBOS 212354Z 18009KT 10SM SCT220 17/09 A3030 RMK AO2 SLP259 T01720089
                 10256 20172 51018 =
2017-10-21 18:54 METAR KBOS 212254Z 15009KT 10SM SCT250 18/09 A3029 RMK AO2 SLP255 T01780089 =
2017-10-21 17:54 METAR KBOS 212154Z 26009KT 10SM FEW220 SCT250 23/06 A3027 RMK AO2 SLP248
                 T02280056 =

Support USWX by starting your Amazon purchase here.